sensor_id;sensor_type;location;lat;lon;timestamp;P1;durP1;ratioP1;P2;durP2;ratioP2
51732;SDS011;39139;53.144;6.244;2023-08-06T00:01:15;18.73;;;16.83;;
51732;SDS011;39139;53.144;6.244;2023-08-06T00:03:43;18.27;;;16.35;;
51732;SDS011;39139;53.144;6.244;2023-08-06T00:06:09;22.30;;;16.60;;
51732;SDS011;39139;53.144;6.244;2023-08-06T00:08:35;17.83;;;15.43;;
51732;SDS011;39139;53.144;6.244;2023-08-06T00:11:00;19.45;;;16.27;;
51732;SDS011;39139;53.144;6.244;2023-08-06T00:13:26;18.08;;;15.57;;
51732;SDS011;39139;53.144;6.244;2023-08-06T00:15:51;21.83;;;14.93;;
51732;SDS011;39139;53.144;6.244;2023-08-06T00:18:17;22.48;;;15.30;;
51732;SDS011;39139;53.144;6.244;2023-08-06T00:20:43;16.30;;;14.15;;
51732;SDS011;39139;53.144;6.244;2023-08-06T00:23:08;19.30;;;14.85;;
51732;SDS011;39139;53.144;6.244;2023-08-06T00:25:34;17.42;;;14.57;;
51732;SDS011;39139;53.144;6.244;2023-08-06T00:28:00;16.48;;;12.40;;
51732;SDS011;39139;53.144;6.244;2023-08-06T00:30:25;15.95;;;13.32;;
51732;SDS011;39139;53.144;6.244;2023-08-06T00:32:51;16.08;;;13.52;;
51732;SDS011;39139;53.144;6.244;2023-08-06T00:35:17;15.95;;;14.35;;
51732;SDS011;39139;53.144;6.244;2023-08-06T00:37:42;16.35;;;13.98;;
51732;SDS011;39139;53.144;6.244;2023-08-06T00:40:08;17.08;;;14.23;;
51732;SDS011;39139;53.144;6.244;2023-08-06T00:42:34;15.27;;;13.68;;
51732;SDS011;39139;53.144;6.244;2023-08-06T00:45:00;15.45;;;13.13;;
51732;SDS011;39139;53.144;6.244;2023-08-06T00:47:26;17.40;;;14.07;;
51732;SDS011;39139;53.144;6.244;2023-08-06T00:49:52;17.50;;;15.52;;
51732;SDS011;39139;53.144;6.244;2023-08-06T00:52:17;16.60;;;14.85;;
51732;SDS011;39139;53.144;6.244;2023-08-06T00:54:43;15.95;;;14.07;;
51732;SDS011;39139;53.144;6.244;2023-08-06T00:57:09;15.38;;;13.75;;
51732;SDS011;39139;53.144;6.244;2023-08-06T00:59:36;16.40;;;14.45;;
51732;SDS011;39139;53.144;6.244;2023-08-06T01:02:02;17.40;;;15.57;;
51732;SDS011;39139;53.144;6.244;2023-08-06T01:04:28;17.85;;;14.60;;
51732;SDS011;39139;53.144;6.244;2023-08-06T01:09:49;16.95;;;15.13;;
51732;SDS011;39139;53.144;6.244;2023-08-06T01:15:27;17.45;;;14.02;;
51732;SDS011;39139;53.144;6.244;2023-08-06T01:17:55;19.27;;;16.20;;
51732;SDS011;39139;53.144;6.244;2023-08-06T01:20:21;16.83;;;15.10;;
51732;SDS011;39139;53.144;6.244;2023-08-06T01:22:47;20.70;;;15.95;;
51732;SDS011;39139;53.144;6.244;2023-08-06T01:25:16;21.05;;;15.52;;
51732;SDS011;39139;53.144;6.244;2023-08-06T01:27:48;18.33;;;15.13;;
51732;SDS011;39139;53.144;6.244;2023-08-06T01:30:17;21.63;;;16.77;;
51732;SDS011;39139;53.144;6.244;2023-08-06T01:32:53;46.83;;;15.73;;
51732;SDS011;39139;53.144;6.244;2023-08-06T01:35:23;19.73;;;15.45;;
51732;SDS011;39139;53.144;6.244;2023-08-06T01:37:51;17.55;;;15.38;;
51732;SDS011;39139;53.144;6.244;2023-08-06T01:40:17;18.88;;;16.98;;
51732;SDS011;39139;53.144;6.244;2023-08-06T01:42:43;17.60;;;14.38;;
51732;SDS011;39139;53.144;6.244;2023-08-06T01:45:09;19.10;;;15.27;;
51732;SDS011;39139;53.144;6.244;2023-08-06T01:47:35;19.67;;;14.98;;
51732;SDS011;39139;53.144;6.244;2023-08-06T01:50:06;18.17;;;13.35;;
51732;SDS011;39139;53.144;6.244;2023-08-06T01:52:32;17.40;;;15.07;;
51732;SDS011;39139;53.144;6.244;2023-08-06T01:54:58;15.68;;;13.35;;
51732;SDS011;39139;53.144;6.244;2023-08-06T01:57:24;14.52;;;12.98;;
51732;SDS011;39139;53.144;6.244;2023-08-06T01:59:49;19.00;;;14.10;;
51732;SDS011;39139;53.144;6.244;2023-08-06T02:02:15;21.55;;;13.50;;
51732;SDS011;39139;53.144;6.244;2023-08-06T02:04:44;17.48;;;14.63;;
51732;SDS011;39139;53.144;6.244;2023-08-06T02:07:10;14.90;;;13.35;;
51732;SDS011;39139;53.144;6.244;2023-08-06T02:09:35;18.05;;;12.85;;
51732;SDS011;39139;53.144;6.244;2023-08-06T02:12:01;17.08;;;14.40;;
51732;SDS011;39139;53.144;6.244;2023-08-06T02:14:27;19.58;;;14.40;;
51732;SDS011;39139;53.144;6.244;2023-08-06T02:16:53;14.80;;;13.20;;
51732;SDS011;39139;53.144;6.244;2023-08-06T02:19:19;17.33;;;13.95;;
51732;SDS011;39139;53.144;6.244;2023-08-06T02:21:44;18.35;;;13.07;;
51732;SDS011;39139;53.144;6.244;2023-08-06T02:24:10;14.45;;;12.95;;
51732;SDS011;39139;53.144;6.244;2023-08-06T02:26:37;14.27;;;12.80;;
51732;SDS011;39139;53.144;6.244;2023-08-06T02:29:03;18.30;;;13.70;;
51732;SDS011;39139;53.144;6.244;2023-08-06T02:31:28;15.90;;;13.90;;
51732;SDS011;39139;53.144;6.244;2023-08-06T02:33:54;14.93;;;13.43;;
51732;SDS011;39139;53.144;6.244;2023-08-06T02:36:20;19.45;;;14.38;;
51732;SDS011;39139;53.144;6.244;2023-08-06T02:38:45;20.67;;;14.80;;
51732;SDS011;39139;53.144;6.244;2023-08-06T02:41:14;16.77;;;14.38;;
51732;SDS011;39139;53.144;6.244;2023-08-06T02:43:40;14.90;;;12.60;;
51732;SDS011;39139;53.144;6.244;2023-08-06T02:46:06;20.80;;;14.60;;
51732;SDS011;39139;53.144;6.244;2023-08-06T02:48:31;18.80;;;16.88;;
51732;SDS011;39139;53.144;6.244;2023-08-06T02:50:57;22.58;;;16.98;;
51732;SDS011;39139;53.144;6.244;2023-08-06T02:53:24;18.52;;;16.55;;
51732;SDS011;39139;53.144;6.244;2023-08-06T02:55:50;17.00;;;15.07;;
51732;SDS011;39139;53.144;6.244;2023-08-06T02:58:16;21.23;;;17.13;;
51732;SDS011;39139;53.144;6.244;2023-08-06T03:00:42;18.45;;;16.65;;
51732;SDS011;39139;53.144;6.244;2023-08-06T03:03:09;19.90;;;15.75;;
51732;SDS011;39139;53.144;6.244;2023-08-06T03:05:35;20.95;;;18.52;;
51732;SDS011;39139;53.144;6.244;2023-08-06T03:08:00;20.08;;;17.90;;
51732;SDS011;39139;53.144;6.244;2023-08-06T03:10:26;20.85;;;18.38;;
51732;SDS011;39139;53.144;6.244;2023-08-06T03:12:52;18.88;;;16.42;;
51732;SDS011;39139;53.144;6.244;2023-08-06T03:15:18;23.02;;;18.27;;
51732;SDS011;39139;53.144;6.244;2023-08-06T03:17:43;19.38;;;17.48;;
51732;SDS011;39139;53.144;6.244;2023-08-06T03:20:09;23.90;;;17.25;;
51732;SDS011;39139;53.144;6.244;2023-08-06T03:22:35;22.30;;;17.08;;
51732;SDS011;39139;53.144;6.244;2023-08-06T03:25:01;19.02;;;17.02;;
51732;SDS011;39139;53.144;6.244;2023-08-06T03:27:27;20.10;;;17.42;;
51732;SDS011;39139;53.144;6.244;2023-08-06T03:29:53;20.63;;;17.35;;
51732;SDS011;39139;53.144;6.244;2023-08-06T03:32:19;24.20;;;19.42;;
51732;SDS011;39139;53.144;6.244;2023-08-06T03:34:44;23.92;;;18.02;;
51732;SDS011;39139;53.144;6.244;2023-08-06T03:37:10;21.45;;;18.23;;
51732;SDS011;39139;53.144;6.244;2023-08-06T03:39:36;23.50;;;19.60;;
51732;SDS011;39139;53.144;6.244;2023-08-06T03:42:02;24.95;;;19.75;;
51732;SDS011;39139;53.144;6.244;2023-08-06T03:44:28;21.17;;;18.98;;
51732;SDS011;39139;53.144;6.244;2023-08-06T03:46:53;22.27;;;19.38;;
51732;SDS011;39139;53.144;6.244;2023-08-06T03:49:19;23.25;;;18.65;;
51732;SDS011;39139;53.144;6.244;2023-08-06T03:51:45;23.10;;;20.27;;
51732;SDS011;39139;53.144;6.244;2023-08-06T03:54:11;22.05;;;19.80;;
51732;SDS011;39139;53.144;6.244;2023-08-06T03:56:36;23.33;;;19.60;;
51732;SDS011;39139;53.144;6.244;2023-08-06T03:59:02;23.90;;;16.63;;
51732;SDS011;39139;53.144;6.244;2023-08-06T04:01:27;19.55;;;17.55;;
51732;SDS011;39139;53.144;6.244;2023-08-06T04:03:53;23.50;;;18.45;;
51732;SDS011;39139;53.144;6.244;2023-08-06T04:06:19;21.65;;;15.93;;
51732;SDS011;39139;53.144;6.244;2023-08-06T04:08:44;20.25;;;16.08;;
51732;SDS011;39139;53.144;6.244;2023-08-06T04:11:10;20.40;;;17.40;;
51732;SDS011;39139;53.144;6.244;2023-08-06T04:13:37;18.67;;;15.35;;
51732;SDS011;39139;53.144;6.244;2023-08-06T04:16:03;19.38;;;16.38;;
51732;SDS011;39139;53.144;6.244;2023-08-06T04:18:29;18.13;;;16.40;;
51732;SDS011;39139;53.144;6.244;2023-08-06T04:20:55;22.75;;;17.50;;
51732;SDS011;39139;53.144;6.244;2023-08-06T04:23:22;21.98;;;18.05;;
51732;SDS011;39139;53.144;6.244;2023-08-06T04:25:48;20.95;;;17.08;;
51732;SDS011;39139;53.144;6.244;2023-08-06T04:28:13;19.33;;;15.82;;
51732;SDS011;39139;53.144;6.244;2023-08-06T04:30:39;18.75;;;16.30;;
51732;SDS011;39139;53.144;6.244;2023-08-06T04:33:05;19.95;;;15.95;;
51732;SDS011;39139;53.144;6.244;2023-08-06T04:35:30;18.83;;;16.88;;
51732;SDS011;39139;53.144;6.244;2023-08-06T04:37:56;20.48;;;17.30;;
51732;SDS011;39139;53.144;6.244;2023-08-06T04:40:22;25.85;;;17.92;;
51732;SDS011;39139;53.144;6.244;2023-08-06T04:42:47;22.42;;;17.20;;
51732;SDS011;39139;53.144;6.244;2023-08-06T04:45:13;19.13;;;15.73;;
51732;SDS011;39139;53.144;6.244;2023-08-06T04:47:38;30.08;;;18.27;;
51732;SDS011;39139;53.144;6.244;2023-08-06T04:50:04;20.27;;;17.23;;
51732;SDS011;39139;53.144;6.244;2023-08-06T04:52:30;21.92;;;17.13;;
51732;SDS011;39139;53.144;6.244;2023-08-06T04:54:57;19.25;;;17.15;;
51732;SDS011;39139;53.144;6.244;2023-08-06T04:57:23;20.17;;;17.95;;
51732;SDS011;39139;53.144;6.244;2023-08-06T04:59:48;22.25;;;18.63;;
51732;SDS011;39139;53.144;6.244;2023-08-06T05:02:14;24.08;;;18.55;;
51732;SDS011;39139;53.144;6.244;2023-08-06T05:04:40;20.92;;;18.58;;
51732;SDS011;39139;53.144;6.244;2023-08-06T05:07:05;23.63;;;20.95;;
51732;SDS011;39139;53.144;6.244;2023-08-06T05:09:31;24.45;;;19.23;;
51732;SDS011;39139;53.144;6.244;2023-08-06T05:12:00;20.40;;;16.73;;
51732;SDS011;39139;53.144;6.244;2023-08-06T05:14:26;21.98;;;18.80;;
51732;SDS011;39139;53.144;6.244;2023-08-06T05:16:51;26.42;;;19.48;;
51732;SDS011;39139;53.144;6.244;2023-08-06T05:19:17;26.25;;;18.92;;
51732;SDS011;39139;53.144;6.244;2023-08-06T05:21:43;24.95;;;20.05;;
51732;SDS011;39139;53.144;6.244;2023-08-06T05:24:08;22.67;;;17.63;;
51732;SDS011;39139;53.144;6.244;2023-08-06T05:26:34;20.98;;;17.95;;
51732;SDS011;39139;53.144;6.244;2023-08-06T05:29:00;20.52;;;17.70;;
51732;SDS011;39139;53.144;6.244;2023-08-06T05:31:26;21.77;;;19.13;;
51732;SDS011;39139;53.144;6.244;2023-08-06T05:33:53;24.00;;;19.35;;
51732;SDS011;39139;53.144;6.244;2023-08-06T05:36:22;25.95;;;19.88;;
51732;SDS011;39139;53.144;6.244;2023-08-06T05:38:47;20.65;;;18.33;;
51732;SDS011;39139;53.144;6.244;2023-08-06T05:41:13;22.25;;;18.42;;
51732;SDS011;39139;53.144;6.244;2023-08-06T05:43:38;21.10;;;17.70;;
51732;SDS011;39139;53.144;6.244;2023-08-06T05:46:04;20.40;;;17.73;;
51732;SDS011;39139;53.144;6.244;2023-08-06T05:48:30;18.75;;;16.85;;
51732;SDS011;39139;53.144;6.244;2023-08-06T05:50:57;19.02;;;17.20;;
51732;SDS011;39139;53.144;6.244;2023-08-06T05:53:23;19.17;;;17.20;;
51732;SDS011;39139;53.144;6.244;2023-08-06T05:55:49;20.92;;;17.30;;
51732;SDS011;39139;53.144;6.244;2023-08-06T05:58:15;18.35;;;16.40;;
51732;SDS011;39139;53.144;6.244;2023-08-06T06:00:41;17.58;;;15.88;;
51732;SDS011;39139;53.144;6.244;2023-08-06T06:03:06;17.45;;;15.75;;
51732;SDS011;39139;53.144;6.244;2023-08-06T06:05:32;17.95;;;16.15;;
51732;SDS011;39139;53.144;6.244;2023-08-06T06:07:58;18.13;;;14.77;;
51732;SDS011;39139;53.144;6.244;2023-08-06T06:10:23;17.38;;;15.68;;
51732;SDS011;39139;53.144;6.244;2023-08-06T06:12:49;20.98;;;14.68;;
51732;SDS011;39139;53.144;6.244;2023-08-06T06:15:14;17.33;;;15.55;;
51732;SDS011;39139;53.144;6.244;2023-08-06T06:17:40;17.67;;;15.82;;
51732;SDS011;39139;53.144;6.244;2023-08-06T06:20:06;18.65;;;15.70;;
51732;SDS011;39139;53.144;6.244;2023-08-06T06:22:32;17.08;;;15.35;;
51732;SDS011;39139;53.144;6.244;2023-08-06T06:24:58;17.55;;;12.73;;
51732;SDS011;39139;53.144;6.244;2023-08-06T06:27:23;13.80;;;12.57;;
51732;SDS011;39139;53.144;6.244;2023-08-06T06:29:49;12.85;;;11.52;;
51732;SDS011;39139;53.144;6.244;2023-08-06T06:32:14;13.60;;;12.20;;
51732;SDS011;39139;53.144;6.244;2023-08-06T06:34:41;13.25;;;11.85;;
51732;SDS011;39139;53.144;6.244;2023-08-06T06:37:06;13.95;;;10.82;;
51732;SDS011;39139;53.144;6.244;2023-08-06T06:39:32;13.73;;;11.95;;
51732;SDS011;39139;53.144;6.244;2023-08-06T06:41:58;13.82;;;11.50;;
51732;SDS011;39139;53.144;6.244;2023-08-06T06:44:24;15.35;;;11.05;;
51732;SDS011;39139;53.144;6.244;2023-08-06T06:46:49;14.55;;;11.82;;
51732;SDS011;39139;53.144;6.244;2023-08-06T06:49:15;12.23;;;10.85;;
51732;SDS011;39139;53.144;6.244;2023-08-06T06:51:41;12.13;;;10.75;;
51732;SDS011;39139;53.144;6.244;2023-08-06T06:54:06;14.50;;;10.95;;
51732;SDS011;39139;53.144;6.244;2023-08-06T06:56:32;10.77;;;9.77;;
51732;SDS011;39139;53.144;6.244;2023-08-06T06:58:57;11.65;;;10.38;;
51732;SDS011;39139;53.144;6.244;2023-08-06T07:01:23;14.10;;;11.68;;
51732;SDS011;39139;53.144;6.244;2023-08-06T07:03:49;13.10;;;11.93;;
51732;SDS011;39139;53.144;6.244;2023-08-06T07:06:14;11.65;;;10.65;;
51732;SDS011;39139;53.144;6.244;2023-08-06T07:08:40;11.35;;;10.35;;
51732;SDS011;39139;53.144;6.244;2023-08-06T07:11:06;11.88;;;10.68;;
51732;SDS011;39139;53.144;6.244;2023-08-06T07:13:33;11.00;;;10.00;;
51732;SDS011;39139;53.144;6.244;2023-08-06T07:15:59;11.15;;;10.10;;
51732;SDS011;39139;53.144;6.244;2023-08-06T07:18:25;11.48;;;10.23;;
51732;SDS011;39139;53.144;6.244;2023-08-06T07:20:51;9.77;;;8.95;;
51732;SDS011;39139;53.144;6.244;2023-08-06T07:23:21;10.43;;;9.30;;
51732;SDS011;39139;53.144;6.244;2023-08-06T07:25:49;9.98;;;9.00;;
51732;SDS011;39139;53.144;6.244;2023-08-06T07:28:18;10.40;;;9.52;;
51732;SDS011;39139;53.144;6.244;2023-08-06T07:30:44;10.63;;;9.60;;
51732;SDS011;39139;53.144;6.244;2023-08-06T07:33:10;10.98;;;9.98;;
51732;SDS011;39139;53.144;6.244;2023-08-06T07:35:36;10.55;;;9.65;;
51732;SDS011;39139;53.144;6.244;2023-08-06T07:38:02;10.05;;;9.23;;
51732;SDS011;39139;53.144;6.244;2023-08-06T07:40:28;13.10;;;11.80;;
51732;SDS011;39139;53.144;6.244;2023-08-06T07:42:54;12.82;;;11.68;;
51732;SDS011;39139;53.144;6.244;2023-08-06T07:45:20;10.68;;;9.57;;
51732;SDS011;39139;53.144;6.244;2023-08-06T07:47:46;11.25;;;10.05;;
51732;SDS011;39139;53.144;6.244;2023-08-06T07:50:12;12.02;;;11.00;;
51732;SDS011;39139;53.144;6.244;2023-08-06T07:52:38;12.43;;;10.30;;
51732;SDS011;39139;53.144;6.244;2023-08-06T07:55:04;11.65;;;10.52;;
51732;SDS011;39139;53.144;6.244;2023-08-06T07:57:32;10.93;;;9.90;;
51732;SDS011;39139;53.144;6.244;2023-08-06T07:59:59;11.63;;;10.63;;
51732;SDS011;39139;53.144;6.244;2023-08-06T08:02:25;14.73;;;9.93;;
51732;SDS011;39139;53.144;6.244;2023-08-06T08:04:51;10.77;;;9.77;;
51732;SDS011;39139;53.144;6.244;2023-08-06T08:07:17;10.48;;;9.40;;
51732;SDS011;39139;53.144;6.244;2023-08-06T08:09:43;10.38;;;9.48;;
51732;SDS011;39139;53.144;6.244;2023-08-06T08:12:08;11.13;;;9.70;;
51732;SDS011;39139;53.144;6.244;2023-08-06T08:14:34;9.85;;;8.98;;
51732;SDS011;39139;53.144;6.244;2023-08-06T08:17:03;9.07;;;8.17;;
51732;SDS011;39139;53.144;6.244;2023-08-06T08:19:30;8.82;;;8.13;;
51732;SDS011;39139;53.144;6.244;2023-08-06T08:21:56;9.18;;;7.80;;
51732;SDS011;39139;53.144;6.244;2023-08-06T08:24:22;8.82;;;7.97;;
51732;SDS011;39139;53.144;6.244;2023-08-06T08:26:52;10.68;;;9.57;;
51732;SDS011;39139;53.144;6.244;2023-08-06T08:29:19;10.43;;;9.43;;
51732;SDS011;39139;53.144;6.244;2023-08-06T08:31:45;9.27;;;8.32;;
51732;SDS011;39139;53.144;6.244;2023-08-06T08:34:14;9.43;;;8.50;;
51732;SDS011;39139;53.144;6.244;2023-08-06T08:36:43;8.15;;;7.45;;
51732;SDS011;39139;53.144;6.244;2023-08-06T08:39:11;9.13;;;8.32;;
51732;SDS011;39139;53.144;6.244;2023-08-06T08:41:38;8.27;;;7.57;;
51732;SDS011;39139;53.144;6.244;2023-08-06T08:44:10;8.63;;;7.88;;
51732;SDS011;39139;53.144;6.244;2023-08-06T08:46:38;7.80;;;7.10;;
51732;SDS011;39139;53.144;6.244;2023-08-06T08:49:06;7.20;;;6.28;;
51732;SDS011;39139;53.144;6.244;2023-08-06T08:51:32;8.45;;;5.75;;
51732;SDS011;39139;53.144;6.244;2023-08-06T08:53:59;5.20;;;4.78;;
51732;SDS011;39139;53.144;6.244;2023-08-06T08:56:28;7.93;;;7.20;;
51732;SDS011;39139;53.144;6.244;2023-08-06T08:58:54;8.93;;;8.07;;
51732;SDS011;39139;53.144;6.244;2023-08-06T09:01:21;8.02;;;7.32;;
51732;SDS011;39139;53.144;6.244;2023-08-06T09:03:47;8.32;;;6.65;;
51732;SDS011;39139;53.144;6.244;2023-08-06T09:06:13;8.27;;;7.22;;
51732;SDS011;39139;53.144;6.244;2023-08-06T09:08:47;8.40;;;6.45;;
51732;SDS011;39139;53.144;6.244;2023-08-06T09:11:22;6.97;;;6.28;;
51732;SDS011;39139;53.144;6.244;2023-08-06T09:13:48;7.47;;;6.78;;
51732;SDS011;39139;53.144;6.244;2023-08-06T09:16:14;6.78;;;6.03;;
51732;SDS011;39139;53.144;6.244;2023-08-06T09:18:40;6.60;;;6.05;;
51732;SDS011;39139;53.144;6.244;2023-08-06T09:21:05;6.78;;;6.18;;
51732;SDS011;39139;53.144;6.244;2023-08-06T09:23:38;6.00;;;5.40;;
51732;SDS011;39139;53.144;6.244;2023-08-06T09:26:03;6.53;;;5.60;;
51732;SDS011;39139;53.144;6.244;2023-08-06T09:28:38;6.68;;;6.18;;
51732;SDS011;39139;53.144;6.244;2023-08-06T09:31:06;6.07;;;5.57;;
51732;SDS011;39139;53.144;6.244;2023-08-06T09:33:32;5.50;;;5.10;;
51732;SDS011;39139;53.144;6.244;2023-08-06T09:36:04;4.30;;;3.97;;
51732;SDS011;39139;53.144;6.244;2023-08-06T09:38:37;5.47;;;5.07;;
51732;SDS011;39139;53.144;6.244;2023-08-06T09:41:07;5.63;;;4.72;;
51732;SDS011;39139;53.144;6.244;2023-08-06T09:43:42;4.20;;;3.78;;
51732;SDS011;39139;53.144;6.244;2023-08-06T09:46:12;5.35;;;3.30;;
51732;SDS011;39139;53.144;6.244;2023-08-06T09:48:39;5.78;;;3.47;;
51732;SDS011;39139;53.144;6.244;2023-08-06T09:51:06;3.33;;;3.13;;
51732;SDS011;39139;53.144;6.244;2023-08-06T09:53:33;3.92;;;3.60;;
51732;SDS011;39139;53.144;6.244;2023-08-06T09:56:00;3.28;;;3.00;;
51732;SDS011;39139;53.144;6.244;2023-08-06T09:58:26;3.38;;;3.08;;
51732;SDS011;39139;53.144;6.244;2023-08-06T10:00:52;3.40;;;3.10;;
51732;SDS011;39139;53.144;6.244;2023-08-06T10:03:18;4.70;;;1.88;;
51732;SDS011;39139;53.144;6.244;2023-08-06T10:05:45;2.25;;;2.00;;
51732;SDS011;39139;53.144;6.244;2023-08-06T10:08:10;2.55;;;2.30;;
51732;SDS011;39139;53.144;6.244;2023-08-06T10:10:36;2.25;;;2.15;;
51732;SDS011;39139;53.144;6.244;2023-08-06T10:13:02;1.88;;;1.77;;
51732;SDS011;39139;53.144;6.244;2023-08-06T10:15:31;1.75;;;1.40;;
51732;SDS011;39139;53.144;6.244;2023-08-06T10:17:58;3.63;;;1.83;;
51732;SDS011;39139;53.144;6.244;2023-08-06T10:20:26;5.75;;;1.98;;
51732;SDS011;39139;53.144;6.244;2023-08-06T10:25:30;2.30;;;2.10;;
51732;SDS011;39139;53.144;6.244;2023-08-06T10:27:57;2.50;;;2.40;;
51732;SDS011;39139;53.144;6.244;2023-08-06T10:30:27;3.25;;;1.77;;
51732;SDS011;39139;53.144;6.244;2023-08-06T10:33:01;2.80;;;1.98;;
51732;SDS011;39139;53.144;6.244;2023-08-06T10:35:29;1.83;;;1.70;;
51732;SDS011;39139;53.144;6.244;2023-08-06T10:40:31;1.70;;;1.60;;
51732;SDS011;39139;53.144;6.244;2023-08-06T10:43:01;2.05;;;1.90;;
51732;SDS011;39139;53.144;6.244;2023-08-06T10:45:27;1.65;;;1.48;;
51732;SDS011;39139;53.144;6.244;2023-08-06T10:47:54;2.03;;;1.73;;
51732;SDS011;39139;53.144;6.244;2023-08-06T10:50:22;2.35;;;1.45;;
51732;SDS011;39139;53.144;6.244;2023-08-06T10:52:48;2.38;;;1.50;;
51732;SDS011;39139;53.144;6.244;2023-08-06T10:55:23;2.15;;;1.58;;
51732;SDS011;39139;53.144;6.244;2023-08-06T10:57:53;3.00;;;1.60;;
51732;SDS011;39139;53.144;6.244;2023-08-06T11:00:20;1.60;;;1.50;;
51732;SDS011;39139;53.144;6.244;2023-08-06T11:02:49;2.42;;;1.50;;
51732;SDS011;39139;53.144;6.244;2023-08-06T11:05:18;2.97;;;1.63;;
51732;SDS011;39139;53.144;6.244;2023-08-06T11:07:44;3.17;;;1.67;;
51732;SDS011;39139;53.144;6.244;2023-08-06T11:10:10;2.90;;;1.73;;
51732;SDS011;39139;53.144;6.244;2023-08-06T11:12:37;2.10;;;1.73;;
51732;SDS011;39139;53.144;6.244;2023-08-06T11:15:03;2.17;;;1.92;;
51732;SDS011;39139;53.144;6.244;2023-08-06T11:17:30;2.88;;;1.90;;
51732;SDS011;39139;53.144;6.244;2023-08-06T11:20:02;5.13;;;1.73;;
51732;SDS011;39139;53.144;6.244;2023-08-06T11:22:29;4.15;;;1.60;;
51732;SDS011;39139;53.144;6.244;2023-08-06T11:24:54;1.42;;;1.33;;
51732;SDS011;39139;53.144;6.244;2023-08-06T11:27:20;1.70;;;1.60;;
51732;SDS011;39139;53.144;6.244;2023-08-06T11:29:46;2.35;;;1.60;;
51732;SDS011;39139;53.144;6.244;2023-08-06T11:32:12;2.38;;;1.45;;
51732;SDS011;39139;53.144;6.244;2023-08-06T11:34:38;1.65;;;1.30;;
51732;SDS011;39139;53.144;6.244;2023-08-06T11:37:04;2.10;;;1.33;;
51732;SDS011;39139;53.144;6.244;2023-08-06T11:39:34;1.38;;;1.20;;
51732;SDS011;39139;53.144;6.244;2023-08-06T11:42:02;2.08;;;1.88;;
51732;SDS011;39139;53.144;6.244;2023-08-06T11:44:32;1.67;;;1.60;;
51732;SDS011;39139;53.144;6.244;2023-08-06T11:47:02;3.63;;;1.70;;
51732;SDS011;39139;53.144;6.244;2023-08-06T11:52:07;2.35;;;2.00;;
51732;SDS011;39139;53.144;6.244;2023-08-06T11:54:35;1.98;;;1.65;;
51732;SDS011;39139;53.144;6.244;2023-08-06T11:57:02;2.90;;;2.25;;
51732;SDS011;39139;53.144;6.244;2023-08-06T11:59:30;2.25;;;1.95;;
51732;SDS011;39139;53.144;6.244;2023-08-06T12:01:55;2.22;;;1.88;;
51732;SDS011;39139;53.144;6.244;2023-08-06T12:04:21;4.60;;;1.60;;
51732;SDS011;39139;53.144;6.244;2023-08-06T12:06:46;3.10;;;1.90;;
51732;SDS011;39139;53.144;6.244;2023-08-06T12:09:12;3.08;;;1.80;;
51732;SDS011;39139;53.144;6.244;2023-08-06T12:11:38;1.50;;;1.40;;
51732;SDS011;39139;53.144;6.244;2023-08-06T12:14:03;1.88;;;1.58;;
51732;SDS011;39139;53.144;6.244;2023-08-06T12:16:29;2.45;;;1.52;;
51732;SDS011;39139;53.144;6.244;2023-08-06T12:18:55;2.80;;;1.83;;
51732;SDS011;39139;53.144;6.244;2023-08-06T12:21:20;3.53;;;1.83;;
51732;SDS011;39139;53.144;6.244;2023-08-06T12:23:46;1.70;;;1.60;;
51732;SDS011;39139;53.144;6.244;2023-08-06T12:26:11;1.88;;;1.67;;
51732;SDS011;39139;53.144;6.244;2023-08-06T12:28:37;3.45;;;1.52;;
51732;SDS011;39139;53.144;6.244;2023-08-06T12:31:03;2.80;;;1.77;;
51732;SDS011;39139;53.144;6.244;2023-08-06T12:33:28;2.05;;;1.77;;
51732;SDS011;39139;53.144;6.244;2023-08-06T12:35:54;2.97;;;1.50;;
51732;SDS011;39139;53.144;6.244;2023-08-06T12:38:20;1.50;;;1.38;;
51732;SDS011;39139;53.144;6.244;2023-08-06T12:40:45;1.95;;;1.85;;
51732;SDS011;39139;53.144;6.244;2023-08-06T12:43:11;1.73;;;1.52;;
51732;SDS011;39139;53.144;6.244;2023-08-06T12:45:37;2.70;;;2.33;;
51732;SDS011;39139;53.144;6.244;2023-08-06T12:48:02;2.30;;;1.88;;
51732;SDS011;39139;53.144;6.244;2023-08-06T12:50:29;2.38;;;2.25;;
51732;SDS011;39139;53.144;6.244;2023-08-06T12:52:54;2.45;;;1.65;;
51732;SDS011;39139;53.144;6.244;2023-08-06T12:55:20;1.83;;;1.63;;
51732;SDS011;39139;53.144;6.244;2023-08-06T12:57:46;2.17;;;1.70;;
51732;SDS011;39139;53.144;6.244;2023-08-06T13:00:11;1.70;;;1.50;;
51732;SDS011;39139;53.144;6.244;2023-08-06T13:02:37;1.58;;;1.48;;
51732;SDS011;39139;53.144;6.244;2023-08-06T13:05:03;2.72;;;1.58;;
51732;SDS011;39139;53.144;6.244;2023-08-06T13:07:31;4.22;;;1.70;;
51732;SDS011;39139;53.144;6.244;2023-08-06T13:09:57;1.67;;;1.58;;
51732;SDS011;39139;53.144;6.244;2023-08-06T13:12:22;3.33;;;1.70;;
51732;SDS011;39139;53.144;6.244;2023-08-06T13:14:48;3.30;;;1.80;;
51732;SDS011;39139;53.144;6.244;2023-08-06T13:17:14;5.75;;;1.90;;
51732;SDS011;39139;53.144;6.244;2023-08-06T13:19:40;3.30;;;1.98;;
51732;SDS011;39139;53.144;6.244;2023-08-06T13:22:05;3.78;;;1.80;;
51732;SDS011;39139;53.144;6.244;2023-08-06T13:24:33;3.00;;;1.75;;
51732;SDS011;39139;53.144;6.244;2023-08-06T13:27:00;3.08;;;2.78;;
51732;SDS011;39139;53.144;6.244;2023-08-06T13:29:27;2.88;;;2.15;;
51732;SDS011;39139;53.144;6.244;2023-08-06T13:31:53;4.82;;;2.40;;
51732;SDS011;39139;53.144;6.244;2023-08-06T13:34:18;3.38;;;1.80;;
51732;SDS011;39139;53.144;6.244;2023-08-06T13:36:44;1.90;;;1.70;;
51732;SDS011;39139;53.144;6.244;2023-08-06T13:39:10;3.13;;;2.03;;
51732;SDS011;39139;53.144;6.244;2023-08-06T13:41:37;3.03;;;1.90;;
51732;SDS011;39139;53.144;6.244;2023-08-06T13:44:04;2.33;;;2.20;;
51732;SDS011;39139;53.144;6.244;2023-08-06T13:46:30;2.97;;;2.78;;
51732;SDS011;39139;53.144;6.244;2023-08-06T13:48:55;2.97;;;2.53;;
51732;SDS011;39139;53.144;6.244;2023-08-06T13:51:21;2.17;;;2.08;;
51732;SDS011;39139;53.144;6.244;2023-08-06T13:53:47;2.03;;;1.75;;
51732;SDS011;39139;53.144;6.244;2023-08-06T13:56:12;1.58;;;1.58;;
51732;SDS011;39139;53.144;6.244;2023-08-06T13:58:42;2.45;;;2.00;;
51732;SDS011;39139;53.144;6.244;2023-08-06T14:01:09;1.77;;;1.67;;
51732;SDS011;39139;53.144;6.244;2023-08-06T14:03:36;2.33;;;2.13;;
51732;SDS011;39139;53.144;6.244;2023-08-06T14:06:02;1.98;;;1.88;;
51732;SDS011;39139;53.144;6.244;2023-08-06T14:08:27;2.70;;;1.63;;
51732;SDS011;39139;53.144;6.244;2023-08-06T14:10:53;1.95;;;1.85;;
51732;SDS011;39139;53.144;6.244;2023-08-06T14:13:19;2.85;;;1.80;;
51732;SDS011;39139;53.144;6.244;2023-08-06T14:15:47;3.28;;;1.50;;
51732;SDS011;39139;53.144;6.244;2023-08-06T14:18:13;2.40;;;2.17;;
51732;SDS011;39139;53.144;6.244;2023-08-06T14:20:39;1.80;;;1.70;;
51732;SDS011;39139;53.144;6.244;2023-08-06T14:23:06;2.25;;;2.10;;
51732;SDS011;39139;53.144;6.244;2023-08-06T14:25:31;2.00;;;1.88;;
51732;SDS011;39139;53.144;6.244;2023-08-06T14:27:57;3.47;;;1.77;;
51732;SDS011;39139;53.144;6.244;2023-08-06T14:30:23;1.75;;;1.65;;
51732;SDS011;39139;53.144;6.244;2023-08-06T14:32:49;1.98;;;1.65;;
51732;SDS011;39139;53.144;6.244;2023-08-06T14:35:15;2.03;;;1.83;;
51732;SDS011;39139;53.144;6.244;2023-08-06T14:37:40;1.48;;;1.27;;
51732;SDS011;39139;53.144;6.244;2023-08-06T14:40:06;2.08;;;1.80;;
51732;SDS011;39139;53.144;6.244;2023-08-06T14:42:33;1.55;;;1.38;;